Albany, NY

5:03 AM EST on November 27, 2014 (GMT -0500)
Pittsfield Municipal | Change Station
CLOSE
Current Station
Airport
Location: Pittsfield,
Elevation: 1194 ft
Nearby Weather Stations

Elev 1194 ft 42.43 °N, 73.29 °W | Updated 9 minutes ago

Overcast
Overcast
27 °F
Feels Like 19 °F
N
8
Wind Variable Wind from NW

Today
High -- | Low -- °F
--% Chance of Precip.
Yesterday
High -- | Low -- °F
Precip. -- in
7:00 AM 4:24 PM
Waxing Crescent, 28% visible
Pressure 29.88 in
Visibility 10.0 miles
Clouds Overcast 1200 ft
Windchill 19 °F
Dew Point 23 °F
Humidity 85%
Rainfall 0.01 in
Snow Depth Not available.
UV 0 out of 12
Pollen .10 out of 12
Air Quality Not available.
Flu Activity Not available.
METAR KPSF 270954Z AUTO 32007KT 10SM OVC012 M03/M05 A2985 RMK AO2 SLP119 T10281050

More Conditions Fewer Conditions

Pressure 29.88 in
Visibility 10.0 miles
Clouds Overcast 1200 ft
Windchill 19 °F
Dew Point 23 °F
Humidity 85%
Rainfall 0.01 in
Snow Depth Not available.
UV 0 out of 12
Pollen .10 out of 12
Air Quality Not available.
Flu Activity Not available.
METAR KPSF 270954Z AUTO 32007KT 10SM OVC012 M03/M05 A2985 RMK AO2 SLP119 T10281050

More Conditions Fewer Conditions

10-Day Weather Forecast

Almanac

Astronomy

Nov. 27, 2014 Rise Set
Actual Time
Civil Twilight
Nautical Twilight
Astronomical Twilight
Moon
Length of Visible Light
Length of Day
Tomorrow will be .
, % of the Moon is Illuminated

Today's Extremes

State Highs State Lows

Community

WunderPhotos

Upload Photos

1,773,968 photos uploaded!

WunderBlogs® & News

Nearby

Air Quality

  Air Quality AQ Index Pollutant
Not available.

Snow Depth

Station Depth Elevation

Earthquake Activity

City Distance Mag. Time & Date
Minimum magnitude displayed is 2.5.

Coastal Water Temperatures

Place Temperature

Nearby Weather Stations